Flight Track Log - Related Links

Times and Time Zones

All times are in EDT time to prevent confusion due to time zone crossing. See the USC105 flight status page for this flight to view local times or setup timezone preferences in your user account.

Time Position Orientation Groundspeed Altitude Reporting Facility
EDT Latitude Longitude Course Direction KTS MPH feet Rate Location/Type
Tue 11:12:39 PM 41.5231 -81.7064 314° West 112 129 1,800  Level Cleveland Center
Tue 11:13:40 PM 41.5603 -81.7125 333° Northwest 143 165 2,600 793 Climbing Cleveland Center
Tue 11:14:40 PM 41.5808 -81.7544 303° West 129 148 3,400 645 Climbing Cleveland Center
Tue 11:15:41 PM 41.5992 -81.8022 297° West 160 184 3,900 298 Climbing Cleveland Center
Tue 11:16:41 PM 41.6233 -81.8608 299° West 179 206 4,000 33 Climbing Cleveland Center
Tue 11:18:43 PM 41.6406 -81.9919 280° West 168 193 4,000  Level Cleveland Center
Tue 11:19:43 PM 41.6544 -82.0533 287° West 168 193 4,000  Level Cleveland Center
Tue 11:20:44 PM 41.6725 -82.1064 295° West 180 207 4,000  Level Cleveland Center
Tue 11:21:44 PM 41.7031 -82.1544 310° West 168 193 4,000  Level Cleveland Center
Tue 11:22:39 PM 41.7172 -82.2050 291° West 167 192 4,000  Level Cleveland Center
Tue 11:23:46 PM 41.7369 -82.2667 293° West 164 189 4,000  Level Cleveland Center
Tue 11:24:46 PM 41.7528 -82.3283 289° West 171 197 4,000  Level Cleveland Center
Tue 11:25:47 PM 41.7706 -82.3928 290° West 172 198 4,000 -43 Level Cleveland Center
Tue 11:27:04 PM 41.7964 -82.4631 296° West 171 197 3,900 -40 Descending Cleveland Center
Tue 11:28:17 PM 41.8161 -82.5333 291° West 166 191 3,900  Level Cleveland Center
Tue 11:29:18 PM 41.8319 -82.5925 290° West 165 190 3,900  Level Cleveland Center
Tue 11:30:18 PM 41.8539 -82.6461 299° West 166 191 3,900  Level Cleveland Center
Tue 11:31:19 PM 41.8800 -82.6944 306° West 166 191 3,900  Level Cleveland Center
Tue 11:32:13 PM 41.9083 -82.7372 312° West 166 191 3,900  Level Cleveland Center
Tue 11:33:14 PM 41.9389 -82.7856 310° West 169 194 3,900  Level Cleveland Center
Tue 11:34:15 PM 41.9692 -82.8369 308° West 170 196 3,900  Level Cleveland Center
Tue 11:35:15 PM 41.9972 -82.8883 306° West 164 189 3,900  Level Cleveland Center
Tue 11:36:16 PM 42.0256 -82.9339 310° West 161 185 3,900 469 Level Cleveland Center
Tue 11:37:23 PM 42.0517 -82.9797 308° West 123 142 4,900 520 Climbing Cleveland Center
Tue 11:38:23 PM 42.0800 -83.0200 313° West 158 182 5,000 50 Climbing Cleveland Center
Tue 11:39:24 PM 42.1081 -83.0714 306° West 167 192 5,000 -52 Level Cleveland Center
Tue 11:40:18 PM 42.1300 -83.1197 301° West 168 193 4,900  Descending Cleveland Center
Tue 11:41:25 PM 42.1600 -83.1714 308° West 165 190 5,000 43 Climbing Cleveland Center
Tue 11:42:38 PM 42.1919 -83.2344 304° West 163 188 5,000  Level Cleveland Center
Tue 11:43:21 PM 42.2100 -83.2717 303° West 163 188 5,000 -55 Level Cleveland Center
Tue 11:44:27 PM 42.2378 -83.3261 305° West 159 183 4,900 -236 Descending Cleveland Center
Tue 11:45:28 PM 42.2636 -83.3778 304° West 169 194 4,500 -787 Descending Cleveland Center
Tue 11:46:29 PM 42.2917 -83.4294 306° West 193 222 3,300 -1,181 Descending Cleveland Center
Tue 11:47:35 PM 42.2775 -83.4878 252° West 178 205 2,000 -1,182 Descending Cleveland Center
Tue 11:49:00 PM 42.2333 -83.5167 270° West  Level FlightAware Approximate
Tue 11:56:00 PM 42.2393 -83.5310 270° West  Level Estimated
Tue 11:57:00 PM 42.2393 -83.5310 270° West  Level Estimated

Login

Don't have an account? Register now (free) for customized features, flight alerts, and more!